Plumas Lake, California
Current Conditions -  °F | °C
As of 7:53 PM on Wednesday 17 Dec 2014 (Local Time) from KMYV Reporting Station
Light Rain Light Rain  
Wind Chill: 51°   Ceiling: 2300
Heat Index: 51°   Visibility: 10mi
Dew Point: 46°   Wind: 5mph
Humidity: 83%   Direction: 220°SW
Pressure: 30.09"   Gusts: NA
Location:  39.0904°N, 121.552°W
Report Text: KMYV 180353Z AUTO 22004KT 10SM -RA FEW016 BKN023 OVC042 11/08 A3009 RMK AO2 RAB39 SLP194 P0000 T01060078
Loading
Personal Weather Stations






























Interactive Weather Map New forecast layout! Learn more

10-Day Weather Forecast

Advertisements
Track Severe Weather on mobile